sensor_id;sensor_type;location;lat;lon;timestamp;temperature;humidity
4324;DHT22;2175;51.018;6.994;2022-11-11T00:00:27;8.70;99.90
4324;DHT22;2175;51.018;6.994;2022-11-11T00:02:56;8.70;99.90
4324;DHT22;2175;51.018;6.994;2022-11-11T00:05:22;8.70;99.90
4324;DHT22;2175;51.018;6.994;2022-11-11T00:07:50;8.80;99.90
4324;DHT22;2175;51.018;6.994;2022-11-11T00:10:16;8.70;99.90
4324;DHT22;2175;51.018;6.994;2022-11-11T00:12:42;8.70;99.90
4324;DHT22;2175;51.018;6.994;2022-11-11T00:15:08;8.70;99.90
4324;DHT22;2175;51.018;6.994;2022-11-11T00:17:33;8.80;99.90
4324;DHT22;2175;51.018;6.994;2022-11-11T00:20:18;8.70;99.90
4324;DHT22;2175;51.018;6.994;2022-11-11T00:23:03;8.70;99.90
4324;DHT22;2175;51.018;6.994;2022-11-11T00:25:51;8.70;99.90
4324;DHT22;2175;51.018;6.994;2022-11-11T00:28:17;8.70;99.90
4324;DHT22;2175;51.018;6.994;2022-11-11T00:30:43;8.60;99.90
4324;DHT22;2175;51.018;6.994;2022-11-11T00:33:08;8.60;99.90
4324;DHT22;2175;51.018;6.994;2022-11-11T00:35:34;8.60;99.90
4324;DHT22;2175;51.018;6.994;2022-11-11T00:38:17;8.60;99.90
4324;DHT22;2175;51.018;6.994;2022-11-11T00:41:01;8.60;99.90
4324;DHT22;2175;51.018;6.994;2022-11-11T00:43:27;8.60;99.90
4324;DHT22;2175;51.018;6.994;2022-11-11T00:45:53;8.60;99.90
4324;DHT22;2175;51.018;6.994;2022-11-11T00:48:19;8.60;99.90
4324;DHT22;2175;51.018;6.994;2022-11-11T00:51:03;8.60;99.90
4324;DHT22;2175;51.018;6.994;2022-11-11T00:53:30;8.60;99.90
4324;DHT22;2175;51.018;6.994;2022-11-11T00:56:00;8.60;99.90
4324;DHT22;2175;51.018;6.994;2022-11-11T00:58:26;8.60;99.90
4324;DHT22;2175;51.018;6.994;2022-11-11T01:00:52;8.60;99.90
4324;DHT22;2175;51.018;6.994;2022-11-11T01:03:18;8.50;99.90
4324;DHT22;2175;51.018;6.994;2022-11-11T01:05:44;8.40;99.90
4324;DHT22;2175;51.018;6.994;2022-11-11T01:08:10;8.40;99.90
4324;DHT22;2175;51.018;6.994;2022-11-11T01:10:36;8.50;99.90
4324;DHT22;2175;51.018;6.994;2022-11-11T01:13:21;8.40;99.90
4324;DHT22;2175;51.018;6.994;2022-11-11T01:15:49;8.40;99.90
4324;DHT22;2175;51.018;6.994;2022-11-11T01:18:18;8.30;99.90
4324;DHT22;2175;51.018;6.994;2022-11-11T01:20:44;8.30;99.90
4324;DHT22;2175;51.018;6.994;2022-11-11T01:23:11;8.30;99.90
4324;DHT22;2175;51.018;6.994;2022-11-11T01:25:39;8.30;99.90
4324;DHT22;2175;51.018;6.994;2022-11-11T01:28:06;8.30;99.90
4324;DHT22;2175;51.018;6.994;2022-11-11T01:30:33;8.20;99.90
4324;DHT22;2175;51.018;6.994;2022-11-11T01:32:59;8.30;99.90
4324;DHT22;2175;51.018;6.994;2022-11-11T01:35:24;8.20;99.90
4324;DHT22;2175;51.018;6.994;2022-11-11T01:37:50;8.20;99.90
4324;DHT22;2175;51.018;6.994;2022-11-11T01:40:16;8.20;99.90
4324;DHT22;2175;51.018;6.994;2022-11-11T01:45:48;8.20;99.90
4324;DHT22;2175;51.018;6.994;2022-11-11T01:48:22;8.20;99.90
4324;DHT22;2175;51.018;6.994;2022-11-11T01:51:18;8.20;99.90
4324;DHT22;2175;51.018;6.994;2022-11-11T01:53:48;8.20;99.90
4324;DHT22;2175;51.018;6.994;2022-11-11T01:56:16;8.20;99.90
4324;DHT22;2175;51.018;6.994;2022-11-11T01:58:42;8.20;99.90
4324;DHT22;2175;51.018;6.994;2022-11-11T02:01:08;8.20;99.90
4324;DHT22;2175;51.018;6.994;2022-11-11T02:03:39;8.20;99.90
4324;DHT22;2175;51.018;6.994;2022-11-11T02:06:06;8.20;99.90
4324;DHT22;2175;51.018;6.994;2022-11-11T02:08:35;8.20;99.90
4324;DHT22;2175;51.018;6.994;2022-11-11T02:11:16;8.20;99.90
4324;DHT22;2175;51.018;6.994;2022-11-11T02:14:05;8.30;99.90
4324;DHT22;2175;51.018;6.994;2022-11-11T02:16:51;8.20;99.90
4324;DHT22;2175;51.018;6.994;2022-11-11T02:19:23;8.20;99.90
4324;DHT22;2175;51.018;6.994;2022-11-11T02:21:58;8.10;99.90
4324;DHT22;2175;51.018;6.994;2022-11-11T02:24:25;8.00;99.90
4324;DHT22;2175;51.018;6.994;2022-11-11T02:26:54;8.10;99.90
4324;DHT22;2175;51.018;6.994;2022-11-11T02:29:20;7.90;99.90
4324;DHT22;2175;51.018;6.994;2022-11-11T02:31:46;8.00;99.90
4324;DHT22;2175;51.018;6.994;2022-11-11T02:34:12;8.00;99.90
4324;DHT22;2175;51.018;6.994;2022-11-11T02:36:39;8.00;99.90
4324;DHT22;2175;51.018;6.994;2022-11-11T02:39:05;8.00;99.90
4324;DHT22;2175;51.018;6.994;2022-11-11T02:41:30;8.00;99.90
4324;DHT22;2175;51.018;6.994;2022-11-11T02:44:15;8.00;99.90
4324;DHT22;2175;51.018;6.994;2022-11-11T02:46:40;7.90;99.90
4324;DHT22;2175;51.018;6.994;2022-11-11T02:49:06;8.00;99.90
4324;DHT22;2175;51.018;6.994;2022-11-11T02:51:31;8.00;99.90
4324;DHT22;2175;51.018;6.994;2022-11-11T02:53:57;7.90;99.90
4324;DHT22;2175;51.018;6.994;2022-11-11T02:56:27;7.90;99.90
4324;DHT22;2175;51.018;6.994;2022-11-11T02:59:12;7.90;99.90
4324;DHT22;2175;51.018;6.994;2022-11-11T03:01:37;7.80;99.90
4324;DHT22;2175;51.018;6.994;2022-11-11T03:04:03;7.70;99.90
4324;DHT22;2175;51.018;6.994;2022-11-11T03:06:29;7.70;99.90
4324;DHT22;2175;51.018;6.994;2022-11-11T03:08:55;7.70;99.90
4324;DHT22;2175;51.018;6.994;2022-11-11T03:11:21;7.70;99.90
4324;DHT22;2175;51.018;6.994;2022-11-11T03:13:56;7.80;99.90
4324;DHT22;2175;51.018;6.994;2022-11-11T03:16:22;7.70;99.90
4324;DHT22;2175;51.018;6.994;2022-11-11T03:19:07;7.60;99.90
4324;DHT22;2175;51.018;6.994;2022-11-11T03:21:33;7.70;99.90
4324;DHT22;2175;51.018;6.994;2022-11-11T03:23:58;7.70;99.90
4324;DHT22;2175;51.018;6.994;2022-11-11T03:26:24;7.70;99.90
4324;DHT22;2175;51.018;6.994;2022-11-11T03:28:49;7.60;99.90
4324;DHT22;2175;51.018;6.994;2022-11-11T03:31:15;7.60;99.90
4324;DHT22;2175;51.018;6.994;2022-11-11T03:33:41;7.60;99.90
4324;DHT22;2175;51.018;6.994;2022-11-11T03:36:07;7.50;99.90
4324;DHT22;2175;51.018;6.994;2022-11-11T03:38:33;7.50;99.90
4324;DHT22;2175;51.018;6.994;2022-11-11T03:40:59;7.50;99.90
4324;DHT22;2175;51.018;6.994;2022-11-11T03:43:29;7.50;99.90
4324;DHT22;2175;51.018;6.994;2022-11-11T03:45:57;7.50;99.90
4324;DHT22;2175;51.018;6.994;2022-11-11T03:48:23;7.60;99.90
4324;DHT22;2175;51.018;6.994;2022-11-11T03:50:50;7.60;99.90
4324;DHT22;2175;51.018;6.994;2022-11-11T03:53:17;7.60;99.90
4324;DHT22;2175;51.018;6.994;2022-11-11T03:55:44;7.60;99.90
4324;DHT22;2175;51.018;6.994;2022-11-11T03:58:10;7.50;99.90
4324;DHT22;2175;51.018;6.994;2022-11-11T04:00:36;7.60;99.90
4324;DHT22;2175;51.018;6.994;2022-11-11T04:05:47;7.60;99.90
4324;DHT22;2175;51.018;6.994;2022-11-11T04:08:31;7.50;99.90
4324;DHT22;2175;51.018;6.994;2022-11-11T04:11:24;7.50;99.90
4324;DHT22;2175;51.018;6.994;2022-11-11T04:13:52;7.50;99.90
4324;DHT22;2175;51.018;6.994;2022-11-11T04:16:37;7.50;99.90
4324;DHT22;2175;51.018;6.994;2022-11-11T04:19:02;7.50;99.90
4324;DHT22;2175;51.018;6.994;2022-11-11T04:21:46;7.50;99.90
4324;DHT22;2175;51.018;6.994;2022-11-11T04:24:14;7.50;99.90
4324;DHT22;2175;51.018;6.994;2022-11-11T04:27:01;7.50;99.90
4324;DHT22;2175;51.018;6.994;2022-11-11T04:29:27;7.50;99.90
4324;DHT22;2175;51.018;6.994;2022-11-11T04:32:10;7.50;99.90
4324;DHT22;2175;51.018;6.994;2022-11-11T04:35:09;7.50;99.90
4324;DHT22;2175;51.018;6.994;2022-11-11T04:37:43;7.50;99.90
4324;DHT22;2175;51.018;6.994;2022-11-11T04:40:10;7.50;99.90
4324;DHT22;2175;51.018;6.994;2022-11-11T04:42:55;7.50;99.90
4324;DHT22;2175;51.018;6.994;2022-11-11T04:45:20;7.50;99.90
4324;DHT22;2175;51.018;6.994;2022-11-11T04:48:02;7.50;99.90
4324;DHT22;2175;51.018;6.994;2022-11-11T04:50:34;7.40;99.90
4324;DHT22;2175;51.018;6.994;2022-11-11T04:53:02;7.50;99.90
4324;DHT22;2175;51.018;6.994;2022-11-11T04:55:28;7.40;99.90
4324;DHT22;2175;51.018;6.994;2022-11-11T04:58:13;7.50;99.90
4324;DHT22;2175;51.018;6.994;2022-11-11T05:00:38;7.40;99.90
4324;DHT22;2175;51.018;6.994;2022-11-11T05:03:04;7.40;99.90
4324;DHT22;2175;51.018;6.994;2022-11-11T05:05:54;7.40;99.90
4324;DHT22;2175;51.018;6.994;2022-11-11T05:08:40;7.40;99.90
4324;DHT22;2175;51.018;6.994;2022-11-11T05:11:25;7.40;99.90
4324;DHT22;2175;51.018;6.994;2022-11-11T05:13:52;7.40;99.90
4324;DHT22;2175;51.018;6.994;2022-11-11T05:16:43;7.40;99.90
4324;DHT22;2175;51.018;6.994;2022-11-11T05:19:27;7.50;99.90
4324;DHT22;2175;51.018;6.994;2022-11-11T05:22:20;7.50;99.90
4324;DHT22;2175;51.018;6.994;2022-11-11T05:24:47;7.50;99.90
4324;DHT22;2175;51.018;6.994;2022-11-11T06:45:01;7.40;99.90
4324;DHT22;2175;51.018;6.994;2022-11-11T06:47:27;7.40;99.90
4324;DHT22;2175;51.018;6.994;2022-11-11T06:49:52;7.50;99.90
4324;DHT22;2175;51.018;6.994;2022-11-11T06:52:18;7.50;99.90
4324;DHT22;2175;51.018;6.994;2022-11-11T06:54:44;7.50;99.90
4324;DHT22;2175;51.018;6.994;2022-11-11T06:57:09;7.50;99.90
4324;DHT22;2175;51.018;6.994;2022-11-11T06:59:35;7.50;99.90
4324;DHT22;2175;51.018;6.994;2022-11-11T07:02:00;7.50;99.90
4324;DHT22;2175;51.018;6.994;2022-11-11T07:04:26;7.50;99.90
4324;DHT22;2175;51.018;6.994;2022-11-11T07:06:51;7.50;99.90
4324;DHT22;2175;51.018;6.994;2022-11-11T07:09:17;7.50;99.90
4324;DHT22;2175;51.018;6.994;2022-11-11T07:11:42;7.50;99.90
4324;DHT22;2175;51.018;6.994;2022-11-11T07:14:08;7.50;99.90
4324;DHT22;2175;51.018;6.994;2022-11-11T07:16:34;7.50;99.90
4324;DHT22;2175;51.018;6.994;2022-11-11T07:18:59;7.60;99.90
4324;DHT22;2175;51.018;6.994;2022-11-11T07:21:25;7.60;99.90
4324;DHT22;2175;51.018;6.994;2022-11-11T07:23:50;7.60;99.90
4324;DHT22;2175;51.018;6.994;2022-11-11T07:26:16;7.60;99.90
4324;DHT22;2175;51.018;6.994;2022-11-11T07:28:41;7.70;99.90
4324;DHT22;2175;51.018;6.994;2022-11-11T07:31:07;7.70;99.90
4324;DHT22;2175;51.018;6.994;2022-11-11T07:33:32;7.90;99.90
4324;DHT22;2175;51.018;6.994;2022-11-11T07:35:58;7.80;99.90
4324;DHT22;2175;51.018;6.994;2022-11-11T07:38:24;7.90;99.90
4324;DHT22;2175;51.018;6.994;2022-11-11T07:40:49;7.90;99.90
4324;DHT22;2175;51.018;6.994;2022-11-11T07:43:15;7.90;99.90
4324;DHT22;2175;51.018;6.994;2022-11-11T07:45:41;8.00;99.90
4324;DHT22;2175;51.018;6.994;2022-11-11T07:48:07;8.00;99.90
4324;DHT22;2175;51.018;6.994;2022-11-11T07:50:33;8.00;99.90
4324;DHT22;2175;51.018;6.994;2022-11-11T07:52:58;8.10;99.90
4324;DHT22;2175;51.018;6.994;2022-11-11T07:55:24;8.10;99.90
4324;DHT22;2175;51.018;6.994;2022-11-11T07:57:53;8.20;99.90
4324;DHT22;2175;51.018;6.994;2022-11-11T08:00:18;8.20;99.90
4324;DHT22;2175;51.018;6.994;2022-11-11T08:02:47;8.20;99.90
4324;DHT22;2175;51.018;6.994;2022-11-11T08:05:13;8.20;99.90
4324;DHT22;2175;51.018;6.994;2022-11-11T08:07:39;8.30;99.90
4324;DHT22;2175;51.018;6.994;2022-11-11T08:10:07;8.40;99.90
4324;DHT22;2175;51.018;6.994;2022-11-11T08:12:33;8.40;99.90
4324;DHT22;2175;51.018;6.994;2022-11-11T08:15:17;8.40;99.90
4324;DHT22;2175;51.018;6.994;2022-11-11T08:17:43;8.40;99.90
4324;DHT22;2175;51.018;6.994;2022-11-11T08:20:10;8.40;99.90
4324;DHT22;2175;51.018;6.994;2022-11-11T08:22:40;8.50;99.90
4324;DHT22;2175;51.018;6.994;2022-11-11T08:25:08;8.60;99.90
4324;DHT22;2175;51.018;6.994;2022-11-11T08:27:34;8.60;99.90
4324;DHT22;2175;51.018;6.994;2022-11-11T08:30:01;8.60;99.90
4324;DHT22;2175;51.018;6.994;2022-11-11T08:32:26;8.70;99.90
4324;DHT22;2175;51.018;6.994;2022-11-11T08:34:52;8.80;99.90
4324;DHT22;2175;51.018;6.994;2022-11-11T08:37:18;8.90;99.90
4324;DHT22;2175;51.018;6.994;2022-11-11T08:39:43;8.90;99.90
4324;DHT22;2175;51.018;6.994;2022-11-11T08:42:09;8.90;99.90
4324;DHT22;2175;51.018;6.994;2022-11-11T08:44:34;8.90;99.90
4324;DHT22;2175;51.018;6.994;2022-11-11T08:47:00;8.90;99.90
4324;DHT22;2175;51.018;6.994;2022-11-11T08:49:26;9.00;99.90
4324;DHT22;2175;51.018;6.994;2022-11-11T08:51:51;9.10;99.90
4324;DHT22;2175;51.018;6.994;2022-11-11T08:54:17;9.10;99.90
4324;DHT22;2175;51.018;6.994;2022-11-11T08:56:43;9.10;99.90
4324;DHT22;2175;51.018;6.994;2022-11-11T08:59:09;9.20;99.90
4324;DHT22;2175;51.018;6.994;2022-11-11T09:01:35;9.30;99.90
4324;DHT22;2175;51.018;6.994;2022-11-11T09:04:01;9.30;99.90
4324;DHT22;2175;51.018;6.994;2022-11-11T09:06:27;9.30;99.90
4324;DHT22;2175;51.018;6.994;2022-11-11T09:08:53;9.40;99.90
4324;DHT22;2175;51.018;6.994;2022-11-11T09:11:19;9.50;99.90
4324;DHT22;2175;51.018;6.994;2022-11-11T09:13:46;9.40;99.90
4324;DHT22;2175;51.018;6.994;2022-11-11T09:16:12;9.50;99.90
4324;DHT22;2175;51.018;6.994;2022-11-11T09:18:38;9.60;99.90
4324;DHT22;2175;51.018;6.994;2022-11-11T09:21:04;9.60;99.90
4324;DHT22;2175;51.018;6.994;2022-11-11T09:23:30;9.60;99.90
4324;DHT22;2175;51.018;6.994;2022-11-11T09:25:56;9.70;99.90
4324;DHT22;2175;51.018;6.994;2022-11-11T09:28:22;9.70;99.90
4324;DHT22;2175;51.018;6.994;2022-11-11T09:30:48;9.90;99.90
4324;DHT22;2175;51.018;6.994;2022-11-11T09:33:14;9.90;99.90
4324;DHT22;2175;51.018;6.994;2022-11-11T09:35:42;10.00;99.90
4324;DHT22;2175;51.018;6.994;2022-11-11T09:38:08;10.10;99.90
4324;DHT22;2175;51.018;6.994;2022-11-11T09:43:54;10.00;99.90
4324;DHT22;2175;51.018;6.994;2022-11-11T09:46:36;10.10;99.90
4324;DHT22;2175;51.018;6.994;2022-11-11T09:52:17;10.20;99.90
4324;DHT22;2175;51.018;6.994;2022-11-11T09:54:58;10.20;99.90
4324;DHT22;2175;51.018;6.994;2022-11-11T09:57:34;10.40;99.90
4324;DHT22;2175;51.018;6.994;2022-11-11T10:00:14;10.40;99.90
4324;DHT22;2175;51.018;6.994;2022-11-11T10:03:05;10.40;99.90
4324;DHT22;2175;51.018;6.994;2022-11-11T10:10:48;10.50;99.90
4324;DHT22;2175;51.018;6.994;2022-11-11T10:13:28;10.50;99.90
4324;DHT22;2175;51.018;6.994;2022-11-11T10:16:16;10.60;99.90
4324;DHT22;2175;51.018;6.994;2022-11-11T10:21:49;10.70;99.90
4324;DHT22;2175;51.018;6.994;2022-11-11T10:24:31;10.80;99.90
4324;DHT22;2175;51.018;6.994;2022-11-11T10:27:02;10.80;99.90
4324;DHT22;2175;51.018;6.994;2022-11-11T10:29:39;10.80;99.90
4324;DHT22;2175;51.018;6.994;2022-11-11T10:32:32;10.80;99.90
4324;DHT22;2175;51.018;6.994;2022-11-11T10:35:26;11.00;99.90
4324;DHT22;2175;51.018;6.994;2022-11-11T10:40:52;11.00;99.90
4324;DHT22;2175;51.018;6.994;2022-11-11T10:43:22;11.10;99.90
4324;DHT22;2175;51.018;6.994;2022-11-11T10:51:08;11.20;99.90
4324;DHT22;2175;51.018;6.994;2022-11-11T10:53:48;11.30;99.90
4324;DHT22;2175;51.018;6.994;2022-11-11T10:59:01;11.40;99.90
4324;DHT22;2175;51.018;6.994;2022-11-11T11:01:41;11.40;99.90
4324;DHT22;2175;51.018;6.994;2022-11-11T11:04:30;11.40;99.90
4324;DHT22;2175;51.018;6.994;2022-11-11T11:10:02;11.50;99.90
4324;DHT22;2175;51.018;6.994;2022-11-11T11:12:41;11.60;99.90
4324;DHT22;2175;51.018;6.994;2022-11-11T11:15:14;11.70;99.90
4324;DHT22;2175;51.018;6.994;2022-11-11T11:18:07;11.80;99.90
4324;DHT22;2175;51.018;6.994;2022-11-11T11:20:34;11.80;99.90
4324;DHT22;2175;51.018;6.994;2022-11-11T11:23:00;11.90;99.90
4324;DHT22;2175;51.018;6.994;2022-11-11T11:25:28;12.00;99.90
4324;DHT22;2175;51.018;6.994;2022-11-11T11:28:13;12.10;99.90
4324;DHT22;2175;51.018;6.994;2022-11-11T11:30:39;12.10;99.90
4324;DHT22;2175;51.018;6.994;2022-11-11T11:33:06;12.20;99.90
4324;DHT22;2175;51.018;6.994;2022-11-11T11:35:37;12.20;99.90
4324;DHT22;2175;51.018;6.994;2022-11-11T11:38:05;12.30;99.90
4324;DHT22;2175;51.018;6.994;2022-11-11T11:40:53;12.40;99.90
4324;DHT22;2175;51.018;6.994;2022-11-11T11:43:33;12.60;99.90
4324;DHT22;2175;51.018;6.994;2022-11-11T11:46:01;12.60;99.90
4324;DHT22;2175;51.018;6.994;2022-11-11T11:51:09;12.80;99.90
4324;DHT22;2175;51.018;6.994;2022-11-11T11:54:10;12.80;99.90
4324;DHT22;2175;51.018;6.994;2022-11-11T11:56:40;12.80;99.90
4324;DHT22;2175;51.018;6.994;2022-11-11T11:59:44;12.90;99.90
4324;DHT22;2175;51.018;6.994;2022-11-11T12:13:04;13.10;99.90
4324;DHT22;2175;51.018;6.994;2022-11-11T12:15:49;13.20;99.90
4324;DHT22;2175;51.018;6.994;2022-11-11T12:21:08;13.40;93.00
4324;DHT22;2175;51.018;6.994;2022-11-11T12:26:21;13.40;78.00
4324;DHT22;2175;51.018;6.994;2022-11-11T12:42:41;13.60;74.20
4324;DHT22;2175;51.018;6.994;2022-11-11T12:50:27;13.80;53.90
4324;DHT22;2175;51.018;6.994;2022-11-11T12:53:08;13.80;65.80
4324;DHT22;2175;51.018;6.994;2022-11-11T12:55:50;13.80;35.80
4324;DHT22;2175;51.018;6.994;2022-11-11T13:01:22;13.80;32.10
4324;DHT22;2175;51.018;6.994;2022-11-11T13:12:18;13.80;33.20
4324;DHT22;2175;51.018;6.994;2022-11-11T13:17:24;13.90;23.00
4324;DHT22;2175;51.018;6.994;2022-11-11T13:19:55;13.90;14.00
4324;DHT22;2175;51.018;6.994;2022-11-11T13:22:31;14.00;15.00
4324;DHT22;2175;51.018;6.994;2022-11-11T13:24:57;14.00;11.10
4324;DHT22;2175;51.018;6.994;2022-11-11T13:35:33;14.30;13.10
4324;DHT22;2175;51.018;6.994;2022-11-11T13:38:00;14.30;25.00
4324;DHT22;2175;51.018;6.994;2022-11-11T13:40:42;14.30;17.70
4324;DHT22;2175;51.018;6.994;2022-11-11T13:43:30;14.30;11.10
4324;DHT22;2175;51.018;6.994;2022-11-11T13:46:00;14.30;1.00
4324;DHT22;2175;51.018;6.994;2022-11-11T13:48:28;14.40;1.00
4324;DHT22;2175;51.018;6.994;2022-11-11T13:51:36;14.50;36.00
4324;DHT22;2175;51.018;6.994;2022-11-11T13:54:06;14.40;1.00
4324;DHT22;2175;51.018;6.994;2022-11-11T13:56:46;14.50;9.60
4324;DHT22;2175;51.018;6.994;2022-11-11T13:59:24;14.50;1.00
4324;DHT22;2175;51.018;6.994;2022-11-11T14:18:02;14.40;1.00
4324;DHT22;2175;51.018;6.994;2022-11-11T14:25:49;14.30;1.00
4324;DHT22;2175;51.018;6.994;2022-11-11T14:37:02;14.00;19.10
4324;DHT22;2175;51.018;6.994;2022-11-11T14:39:53;14.00;9.70
4324;DHT22;2175;51.018;6.994;2022-11-11T14:47:54;13.90;37.60
4324;DHT22;2175;51.018;6.994;2022-11-11T14:52:57;13.70;27.10
4324;DHT22;2175;51.018;6.994;2022-11-11T14:55:34;13.80;20.90
4324;DHT22;2175;51.018;6.994;2022-11-11T14:58:15;13.70;39.00
4324;DHT22;2175;51.018;6.994;2022-11-11T15:00:50;13.60;57.90
4324;DHT22;2175;51.018;6.994;2022-11-11T15:11:35;13.20;66.60
4324;DHT22;2175;51.018;6.994;2022-11-11T15:14:47;13.20;59.40
4324;DHT22;2175;51.018;6.994;2022-11-11T15:25:41;13.00;89.20
4324;DHT22;2175;51.018;6.994;2022-11-11T15:36:50;12.60;99.90
4324;DHT22;2175;51.018;6.994;2022-11-11T15:39:20;12.40;99.90
4324;DHT22;2175;51.018;6.994;2022-11-11T15:41:48;12.30;99.90
4324;DHT22;2175;51.018;6.994;2022-11-11T15:44:19;12.30;99.90
4324;DHT22;2175;51.018;6.994;2022-11-11T15:46:47;12.10;99.90
4324;DHT22;2175;51.018;6.994;2022-11-11T15:52:01;12.10;99.90
4324;DHT22;2175;51.018;6.994;2022-11-11T15:54:26;12.10;99.90
4324;DHT22;2175;51.018;6.994;2022-11-11T15:56:52;12.00;99.90
4324;DHT22;2175;51.018;6.994;2022-11-11T15:59:28;12.00;99.90
4324;DHT22;2175;51.018;6.994;2022-11-11T16:01:55;12.00;99.90
4324;DHT22;2175;51.018;6.994;2022-11-11T16:04:23;11.80;99.90
4324;DHT22;2175;51.018;6.994;2022-11-11T16:06:49;11.70;99.90
4324;DHT22;2175;51.018;6.994;2022-11-11T16:09:24;11.70;99.90
4324;DHT22;2175;51.018;6.994;2022-11-11T16:11:53;11.50;99.90
4324;DHT22;2175;51.018;6.994;2022-11-11T16:14:33;11.50;99.90
4324;DHT22;2175;51.018;6.994;2022-11-11T16:17:02;11.40;99.90
4324;DHT22;2175;51.018;6.994;2022-11-11T16:19:35;11.30;99.90
4324;DHT22;2175;51.018;6.994;2022-11-11T16:22:06;11.20;99.90
4324;DHT22;2175;51.018;6.994;2022-11-11T16:24:37;11.10;99.90
4324;DHT22;2175;51.018;6.994;2022-11-11T16:27:04;11.10;99.90
4324;DHT22;2175;51.018;6.994;2022-11-11T16:29:37;11.10;99.90
4324;DHT22;2175;51.018;6.994;2022-11-11T16:34:47;10.90;99.90
4324;DHT22;2175;51.018;6.994;2022-11-11T16:37:15;10.90;99.90
4324;DHT22;2175;51.018;6.994;2022-11-11T16:39:41;10.80;99.90
4324;DHT22;2175;51.018;6.994;2022-11-11T16:42:26;10.70;99.90
4324;DHT22;2175;51.018;6.994;2022-11-11T16:44:56;10.70;99.90
4324;DHT22;2175;51.018;6.994;2022-11-11T16:52:29;10.50;99.90
4324;DHT22;2175;51.018;6.994;2022-11-11T16:54:59;10.50;99.90
4324;DHT22;2175;51.018;6.994;2022-11-11T16:57:28;10.40;99.90
4324;DHT22;2175;51.018;6.994;2022-11-11T17:00:02;10.40;99.90
4324;DHT22;2175;51.018;6.994;2022-11-11T17:02:28;10.30;99.90
4324;DHT22;2175;51.018;6.994;2022-11-11T17:04:56;10.30;99.90
4324;DHT22;2175;51.018;6.994;2022-11-11T17:07:29;10.20;99.90
4324;DHT22;2175;51.018;6.994;2022-11-11T17:10:19;10.10;99.90
4324;DHT22;2175;51.018;6.994;2022-11-11T17:12:45;10.00;99.90
4324;DHT22;2175;51.018;6.994;2022-11-11T17:15:13;10.00;99.90
4324;DHT22;2175;51.018;6.994;2022-11-11T17:17:40;9.90;99.90
4324;DHT22;2175;51.018;6.994;2022-11-11T17:20:18;10.00;99.90
4324;DHT22;2175;51.018;6.994;2022-11-11T17:22:56;9.90;99.90
4324;DHT22;2175;51.018;6.994;2022-11-11T17:25:21;9.80;99.90
4324;DHT22;2175;51.018;6.994;2022-11-11T17:27:47;9.80;99.90
4324;DHT22;2175;51.018;6.994;2022-11-11T17:30:13;9.80;99.90
4324;DHT22;2175;51.018;6.994;2022-11-11T17:32:39;9.70;99.90
4324;DHT22;2175;51.018;6.994;2022-11-11T17:35:06;9.70;99.90
4324;DHT22;2175;51.018;6.994;2022-11-11T17:37:35;9.70;99.90
4324;DHT22;2175;51.018;6.994;2022-11-11T17:40:04;9.60;99.90
4324;DHT22;2175;51.018;6.994;2022-11-11T17:42:31;9.60;99.90
4324;DHT22;2175;51.018;6.994;2022-11-11T17:44:56;9.60;99.90
4324;DHT22;2175;51.018;6.994;2022-11-11T17:47:25;9.60;99.90
4324;DHT22;2175;51.018;6.994;2022-11-11T17:49:51;9.60;99.90
4324;DHT22;2175;51.018;6.994;2022-11-11T17:52:17;9.50;99.90
4324;DHT22;2175;51.018;6.994;2022-11-11T17:54:42;9.40;99.90
4324;DHT22;2175;51.018;6.994;2022-11-11T17:57:08;9.40;99.90
4324;DHT22;2175;51.018;6.994;2022-11-11T17:59:34;9.40;99.90
4324;DHT22;2175;51.018;6.994;2022-11-11T18:02:00;9.30;99.90
4324;DHT22;2175;51.018;6.994;2022-11-11T18:04:26;9.20;99.90
4324;DHT22;2175;51.018;6.994;2022-11-11T18:06:52;9.20;99.90
4324;DHT22;2175;51.018;6.994;2022-11-11T18:09:17;9.20;99.90
4324;DHT22;2175;51.018;6.994;2022-11-11T18:11:43;9.10;99.90
4324;DHT22;2175;51.018;6.994;2022-11-11T18:14:09;9.20;99.90
4324;DHT22;2175;51.018;6.994;2022-11-11T18:16:36;9.20;99.90
4324;DHT22;2175;51.018;6.994;2022-11-11T18:19:02;9.10;99.90
4324;DHT22;2175;51.018;6.994;2022-11-11T18:21:30;9.00;99.90
4324;DHT22;2175;51.018;6.994;2022-11-11T18:23:55;9.00;99.90
4324;DHT22;2175;51.018;6.994;2022-11-11T18:26:23;9.00;99.90
4324;DHT22;2175;51.018;6.994;2022-11-11T18:28:49;8.90;99.90
4324;DHT22;2175;51.018;6.994;2022-11-11T18:31:15;8.90;99.90
4324;DHT22;2175;51.018;6.994;2022-11-11T18:33:41;8.90;99.90
4324;DHT22;2175;51.018;6.994;2022-11-11T18:36:15;8.90;99.90
4324;DHT22;2175;51.018;6.994;2022-11-11T18:38:41;8.90;99.90
4324;DHT22;2175;51.018;6.994;2022-11-11T18:41:13;8.80;99.90
4324;DHT22;2175;51.018;6.994;2022-11-11T18:43:42;8.80;99.90
4324;DHT22;2175;51.018;6.994;2022-11-11T18:46:33;8.80;99.90
4324;DHT22;2175;51.018;6.994;2022-11-11T18:49:00;8.70;99.90
4324;DHT22;2175;51.018;6.994;2022-11-11T18:51:28;8.70;99.90
4324;DHT22;2175;51.018;6.994;2022-11-11T18:53:56;8.70;99.90
4324;DHT22;2175;51.018;6.994;2022-11-11T18:56:23;8.60;99.90
4324;DHT22;2175;51.018;6.994;2022-11-11T18:58:53;8.70;99.90
4324;DHT22;2175;51.018;6.994;2022-11-11T19:01:21;8.60;99.90
4324;DHT22;2175;51.018;6.994;2022-11-11T19:06:22;8.60;99.90
4324;DHT22;2175;51.018;6.994;2022-11-11T19:08:53;8.60;99.90
4324;DHT22;2175;51.018;6.994;2022-11-11T19:11:19;8.50;99.90
4324;DHT22;2175;51.018;6.994;2022-11-11T19:13:45;8.50;99.90
4324;DHT22;2175;51.018;6.994;2022-11-11T19:16:13;8.40;99.90
4324;DHT22;2175;51.018;6.994;2022-11-11T19:18:39;8.40;99.90
4324;DHT22;2175;51.018;6.994;2022-11-11T19:21:12;8.40;99.90
4324;DHT22;2175;51.018;6.994;2022-11-11T19:23:39;8.30;99.90
4324;DHT22;2175;51.018;6.994;2022-11-11T19:26:05;8.30;99.90
4324;DHT22;2175;51.018;6.994;2022-11-11T19:28:31;8.20;99.90
4324;DHT22;2175;51.018;6.994;2022-11-11T19:31:08;8.30;99.90
4324;DHT22;2175;51.018;6.994;2022-11-11T19:33:35;8.30;99.90
4324;DHT22;2175;51.018;6.994;2022-11-11T19:36:04;8.20;99.90
4324;DHT22;2175;51.018;6.994;2022-11-11T19:38:31;8.30;99.90
4324;DHT22;2175;51.018;6.994;2022-11-11T19:40:57;8.20;99.90
4324;DHT22;2175;51.018;6.994;2022-11-11T19:43:23;8.20;99.90
4324;DHT22;2175;51.018;6.994;2022-11-11T19:45:49;8.10;99.90
4324;DHT22;2175;51.018;6.994;2022-11-11T19:48:15;8.10;99.90
4324;DHT22;2175;51.018;6.994;2022-11-11T19:50:41;8.00;99.90
4324;DHT22;2175;51.018;6.994;2022-11-11T19:53:10;8.00;99.90
4324;DHT22;2175;51.018;6.994;2022-11-11T19:55:36;8.00;99.90
4324;DHT22;2175;51.018;6.994;2022-11-11T19:58:01;8.10;99.90
4324;DHT22;2175;51.018;6.994;2022-11-11T20:00:27;8.10;99.90
4324;DHT22;2175;51.018;6.994;2022-11-11T20:02:54;8.10;99.90
4324;DHT22;2175;51.018;6.994;2022-11-11T20:05:21;8.10;99.90
4324;DHT22;2175;51.018;6.994;2022-11-11T20:07:46;8.00;99.90
4324;DHT22;2175;51.018;6.994;2022-11-11T20:10:12;8.00;99.90
4324;DHT22;2175;51.018;6.994;2022-11-11T20:12:37;8.00;99.90
4324;DHT22;2175;51.018;6.994;2022-11-11T20:15:03;8.00;99.90
4324;DHT22;2175;51.018;6.994;2022-11-11T20:17:29;7.90;99.90
4324;DHT22;2175;51.018;6.994;2022-11-11T20:19:54;7.80;99.90
4324;DHT22;2175;51.018;6.994;2022-11-11T20:22:20;7.90;99.90
4324;DHT22;2175;51.018;6.994;2022-11-11T20:24:45;7.90;99.90
4324;DHT22;2175;51.018;6.994;2022-11-11T20:27:11;7.80;99.90
4324;DHT22;2175;51.018;6.994;2022-11-11T20:29:37;7.70;99.90
4324;DHT22;2175;51.018;6.994;2022-11-11T20:32:02;7.70;99.90
4324;DHT22;2175;51.018;6.994;2022-11-11T20:34:28;7.70;99.90
4324;DHT22;2175;51.018;6.994;2022-11-11T20:36:53;7.70;99.90
4324;DHT22;2175;51.018;6.994;2022-11-11T20:39:19;7.60;99.90
4324;DHT22;2175;51.018;6.994;2022-11-11T20:41:45;7.60;99.90
4324;DHT22;2175;51.018;6.994;2022-11-11T20:44:10;7.60;99.90